Time;durP1;ratioP1;P1;durP2;ratioP2;P2;SDS_P1;SDS_P2;PMS_P1;PMS_P2;Temp;Humidity;BMP_temperature;BMP_pressure;BME280_temperature;BME280_humidity;BME280_pressure;Samples;Min_cycle;Max_cycle;Signal;HPM_P1;HPM_P2
2021/01/02 00:01:45;;;;;;;1.00;0.63;;;9.80;99.90;;;;;;4945890;29;20248;-96
2021/01/02 00:04:39;;;;;;;0.93;0.53;;;9.80;99.90;;;;;;4943390;29;20211;-96
2021/01/02 00:09:46;;;;;;;1.80;0.50;;;9.80;99.90;;;;;;4615248;28;10000152;-92
2021/01/02 00:12:35;;;;;;;0.93;0.40;;;9.70;99.90;;;;;;4958525;28;20212;-91
2021/01/02 00:15:10;;;;;;;0.80;0.50;;;9.70;99.90;;;;;;4956372;28;20326;-96
2021/01/02 00:18:03;;;;;;;0.63;0.50;;;9.70;99.90;;;;;;4954799;28;20215;-96
2021/01/02 00:21:19;;;;;;;1.17;0.57;;;9.80;99.90;;;;;;4961112;28;20223;-92
2021/01/02 00:24:39;;;;;;;1.27;0.40;;;9.70;99.90;;;;;;4968913;28;20186;-96
2021/01/02 00:27:32;;;;;;;0.90;0.70;;;9.70;99.90;;;;;;4969901;28;20202;-96
2021/01/02 00:30:18;;;;;;;3.60;0.90;;;9.60;99.90;;;;;;4968527;28;20258;-96
2021/01/02 00:32:57;;;;;;;0.57;0.50;;;9.60;99.90;;;;;;5384957;23;20245;-96
2021/01/02 00:48:51;;;;;;;8.37;1.73;;;9.40;99.90;;;;;;4976556;28;20223;-96
2021/01/02 00:51:22;;;;;;;5.90;1.77;;;9.30;99.90;;;;;;4978724;28;20194;-94
2021/01/02 02:50:22;;;;;;;1.60;1.07;;;8.90;99.90;;;;;;5208607;23;20245;-95
2021/01/02 04:59:27;;;;;;;27.07;10.90;;;8.40;99.90;;;;;;6216705;22;20206;-96
2021/01/02 05:02:03;;;;;;;42.77;13.70;;;8.30;99.90;;;;;;6244351;22;20338;-96
2021/01/02 05:34:44;;;;;;;83.80;24.17;;;8.50;99.90;;;;;;6257418;22;20230;-96
2021/01/02 05:40:49;;;;;;;8.63;3.63;;;8.40;99.90;;;;;;6285475;22;20209;-96
2021/01/02 05:43:33;;;;;;;11.93;4.87;;;8.50;99.90;;;;;;6296666;22;20174;-95
2021/01/02 05:51:34;;;;;;;7.13;1.57;;;8.50;99.90;;;;;;6271794;22;20202;-96
2021/01/02 05:56:51;;;;;;;1.43;1.00;;;8.60;99.90;;;;;;6297432;22;20191;-94
2021/01/02 11:44:19;;;;;;;1.27;0.30;;;8.60;99.90;;;;;;6297600;22;20221;-91
2021/01/02 12:27:15;;;;;;;1.40;0.50;;;8.70;99.90;;;;;;6302331;22;20214;-96
2021/01/02 12:29:49;;;;;;;3.20;0.50;;;8.60;99.90;;;;;;6276788;22;20167;-96
2021/01/02 12:32:25;;;;;;;1.63;0.50;;;8.70;99.90;;;;;;6302658;22;20174;-96
2021/01/02 12:48:22;;;;;;;1.27;0.40;;;8.60;99.90;;;;;;6293267;22;20221;-96
2021/01/02 13:12:26;;;;;;;1.43;0.40;;;8.30;99.90;;;;;;6280965;22;20234;-96
2021/01/02 13:15:03;;;;;;;3.13;0.73;;;8.20;99.90;;;;;;6299757;22;20532;-96
2021/01/02 13:17:34;;;;;;;2.87;0.50;;;8.30;99.90;;;;;;6298927;22;20197;-96
2021/01/02 13:20:07;;;;;;;1.70;0.40;;;8.30;99.90;;;;;;6272808;22;20197;-96
2021/01/02 13:22:39;;;;;;;2.07;0.37;;;8.30;99.90;;;;;;6297139;22;20209;-96
2021/01/02 13:25:11;;;;;;;3.77;0.50;;;8.30;99.90;;;;;;6293262;22;20225;-96
2021/01/02 13:27:44;;;;;;;1.83;0.43;;;8.30;99.90;;;;;;6274485;22;20239;-96
2021/01/02 13:30:18;;;;;;;1.43;0.40;;;8.30;99.90;;;;;;6272798;22;20190;-96
2021/01/02 13:32:49;;;;;;;2.60;0.40;;;8.30;99.90;;;;;;6298388;22;20175;-96
2021/01/02 13:35:21;;;;;;;1.33;0.53;;;8.30;99.90;;;;;;6297563;22;20230;-96
2021/01/02 13:37:53;;;;;;;2.90;0.70;;;8.20;99.90;;;;;;6272934;22;20175;-96
2021/01/02 13:40:26;;;;;;;5.67;0.73;;;8.20;99.90;;;;;;6271943;22;20167;-96
2021/01/02 13:42:59;;;;;;;2.50;0.60;;;8.10;99.90;;;;;;6299009;22;20255;-93
2021/01/02 13:45:33;;;;;;;2.70;0.50;;;8.10;99.90;;;;;;6271709;22;20188;-95
2021/01/02 13:48:05;;;;;;;3.07;1.60;;;8.00;99.90;;;;;;6298604;22;20159;-95
2021/01/02 13:50:37;;;;;;;3.70;0.33;;;8.00;99.90;;;;;;6297905;22;20182;-96
2021/01/02 14:17:23;;;;;;;2.53;0.53;;;8.00;99.90;;;;;;6291263;22;20217;-96
2021/01/02 14:19:56;;;;;;;4.20;0.90;;;8.00;99.90;;;;;;6299202;22;20197;-96
2021/01/02 14:22:28;;;;;;;2.30;0.40;;;8.00;99.90;;;;;;6300074;22;20186;-96
2021/01/02 14:25:04;;;;;;;2.53;0.50;;;7.90;99.90;;;;;;6301055;22;20231;-96
2021/01/02 16:11:08;;;;;;;7.57;1.60;;;8.10;99.90;;;;;;6286749;22;20201;-96
2021/01/02 16:43:41;;;;;;;7.20;1.20;;;7.90;99.90;;;;;;6276360;22;20263;-96
2021/01/02 16:46:19;;;;;;;3.70;1.03;;;8.00;99.90;;;;;;6293654;22;20212;-96
2021/01/02 16:48:59;;;;;;;5.97;1.00;;;8.00;99.90;;;;;;6274319;22;20191;-96
2021/01/02 16:51:37;;;;;;;4.20;1.17;;;8.00;99.90;;;;;;6273684;22;20163;-96
2021/01/02 16:54:11;;;;;;;6.50;0.90;;;8.00;99.90;;;;;;6271761;22;20221;-96
2021/01/02 16:59:31;;;;;;;6.30;1.67;;;8.10;99.90;;;;;;6290773;22;20238;-96
2021/01/02 17:07:24;;;;;;;3.63;0.90;;;8.00;99.90;;;;;;6270641;22;20209;-96
2021/01/02 17:10:03;;;;;;;4.17;0.97;;;8.00;99.90;;;;;;6290784;22;20183;-96
2021/01/02 17:12:36;;;;;;;2.80;0.60;;;7.90;99.90;;;;;;6293437;22;20190;-96
2021/01/02 17:15:10;;;;;;;4.97;0.70;;;8.00;99.90;;;;;;6299511;22;20200;-96
2021/01/02 17:17:41;;;;;;;3.83;0.90;;;8.00;99.90;;;;;;6292899;22;20217;-96
2021/01/02 17:20:14;;;;;;;3.67;0.90;;;8.00;99.90;;;;;;6228286;22;20199;-96
2021/01/02 17:22:45;;;;;;;3.40;0.83;;;8.00;99.90;;;;;;6297449;22;20180;-96
2021/01/02 17:25:18;;;;;;;4.63;1.07;;;8.00;99.90;;;;;;6291788;22;20175;-96
2021/01/02 17:27:49;;;;;;;3.53;0.70;;;8.00;99.90;;;;;;6290823;22;20163;-96
2021/01/02 17:30:22;;;;;;;5.13;0.80;;;8.00;99.90;;;;;;6262206;22;20189;-96
2021/01/02 17:32:53;;;;;;;2.37;0.60;;;8.00;99.90;;;;;;6243038;22;20288;-96
2021/01/02 17:35:23;;;;;;;4.03;0.83;;;8.10;99.90;;;;;;6287900;22;20182;-94
2021/01/02 17:37:53;;;;;;;1.10;0.50;;;8.00;99.90;;;;;;6284178;22;20184;-94
2021/01/02 17:40:28;;;;;;;4.27;0.80;;;8.10;99.90;;;;;;6282143;22;20237;-96
2021/01/02 17:43:02;;;;;;;3.77;1.10;;;8.10;99.90;;;;;;6288720;22;20162;-96
2021/01/02 17:45:33;;;;;;;3.63;0.70;;;8.20;99.90;;;;;;6288744;22;20175;-96
2021/01/02 17:48:03;;;;;;;3.80;0.60;;;8.20;99.90;;;;;;6284946;22;20202;-96
2021/01/02 17:50:38;;;;;;;2.30;0.57;;;8.20;99.90;;;;;;6283124;22;20254;-96
2021/01/02 17:53:09;;;;;;;3.57;0.93;;;8.20;99.90;;;;;;6281984;22;20178;-96
2021/01/02 17:55:41;;;;;;;4.40;0.90;;;8.10;99.90;;;;;;6283700;22;20187;-95
2021/01/02 17:58:12;;;;;;;1.57;0.43;;;8.10;99.90;;;;;;6260920;22;20171;-96
2021/01/02 18:00:44;;;;;;;3.97;0.90;;;8.10;99.90;;;;;;6258992;22;20200;-96
2021/01/02 18:03:14;;;;;;;3.87;0.70;;;8.10;99.90;;;;;;6285210;22;20205;-95
2021/01/02 18:05:45;;;;;;;1.30;0.50;;;8.00;99.90;;;;;;6256558;22;20254;-96
2021/01/02 18:08:17;;;;;;;4.67;1.00;;;8.00;99.90;;;;;;6284186;22;20174;-95
2021/01/02 18:10:52;;;;;;;2.90;0.50;;;8.00;99.90;;;;;;6260967;22;20183;-96
2021/01/02 18:13:23;;;;;;;2.80;0.57;;;8.00;99.90;;;;;;6288081;22;20244;-95
2021/01/02 18:15:54;;;;;;;3.60;0.90;;;8.00;99.90;;;;;;6277687;22;20221;-94
2021/01/02 18:18:26;;;;;;;1.77;0.60;;;8.00;99.90;;;;;;6260468;22;20557;-95
2021/01/02 18:20:57;;;;;;;1.77;0.50;;;8.00;99.90;;;;;;6281903;22;20175;-95
2021/01/02 18:23:30;;;;;;;2.20;0.50;;;8.10;99.90;;;;;;6286056;22;20174;-96
2021/01/02 18:26:32;;;;;;;5.00;0.93;;;8.10;99.90;;;;;;6288613;22;20199;-96
2021/01/02 18:29:03;;;;;;;0.97;0.50;;;8.00;99.90;;;;;;6284047;22;20196;-94
2021/01/02 18:31:39;;;;;;;0.83;0.30;;;8.10;99.90;;;;;;6287285;22;20225;-95
2021/01/02 18:37:00;;;;;;;3.00;0.47;;;8.10;99.90;;;;;;6287040;22;20273;-96
2021/01/02 18:39:31;;;;;;;3.80;0.60;;;8.10;99.90;;;;;;6283726;22;20248;-96
2021/01/02 18:42:08;;;;;;;2.37;0.60;;;8.10;99.90;;;;;;6284313;22;20171;-95
2021/01/02 18:47:13;;;;;;;0.93;0.40;;;8.10;99.90;;;;;;6284204;22;20207;-96
2021/01/02 18:49:46;;;;;;;3.00;0.60;;;8.00;99.90;;;;;;6262244;22;20193;-95
2021/01/02 18:52:17;;;;;;;1.67;0.40;;;8.10;99.90;;;;;;6262502;22;20179;-96
2021/01/02 18:54:52;;;;;;;2.47;0.70;;;8.10;99.90;;;;;;6288392;22;20175;-96
2021/01/02 18:57:24;;;;;;;3.70;0.50;;;8.00;99.90;;;;;;6264744;22;20246;-96
2021/01/02 18:59:55;;;;;;;2.47;0.70;;;8.00;99.90;;;;;;6287612;22;20237;-94
2021/01/02 19:02:26;;;;;;;0.60;0.23;;;8.00;99.90;;;;;;6288427;22;20175;-96
2021/01/02 19:05:00;;;;;;;0.93;0.33;;;8.10;99.90;;;;;;6279815;22;20290;-96
2021/01/02 19:07:32;;;;;;;0.83;0.37;;;8.10;99.90;;;;;;6291079;22;20186;-95
2021/01/02 19:10:03;;;;;;;1.23;0.53;;;8.10;99.90;;;;;;6284424;22;20254;-96
2021/01/02 19:12:36;;;;;;;1.27;0.33;;;8.10;99.90;;;;;;6284314;22;20193;-96
2021/01/02 19:15:09;;;;;;;0.57;0.20;;;8.10;99.90;;;;;;6283462;22;20175;-96
2021/01/02 19:17:42;;;;;;;1.80;0.40;;;8.10;99.90;;;;;;6293457;22;20218;-95
2021/01/02 19:20:14;;;;;;;0.50;0.30;;;8.20;99.90;;;;;;6287477;22;20170;-95
2021/01/02 19:22:45;;;;;;;1.13;0.40;;;8.10;99.90;;;;;;6282336;22;20207;-87
2021/01/02 19:25:17;;;;;;;1.83;0.50;;;8.20;99.90;;;;;;6253393;22;20179;-91
2021/01/02 19:27:50;;;;;;;0.27;0.27;;;8.20;99.90;;;;;;6259868;22;20257;-93
2021/01/02 19:30:22;;;;;;;1.23;0.47;;;8.20;99.90;;;;;;6283895;22;20168;-96
2021/01/02 19:32:54;;;;;;;1.43;0.37;;;8.30;99.90;;;;;;6264592;22;20181;-95
2021/01/02 19:35:25;;;;;;;1.87;0.30;;;8.30;99.90;;;;;;6298575;22;20170;-96
2021/01/02 19:37:56;;;;;;;0.80;0.40;;;8.20;99.90;;;;;;6299569;22;20327;-96
2021/01/02 19:40:27;;;;;;;0.20;0.20;;;8.30;99.90;;;;;;6295462;22;20273;-96
2021/01/02 19:43:00;;;;;;;0.77;0.33;;;8.30;99.90;;;;;;6291501;22;20177;-95
2021/01/02 19:45:30;;;;;;;0.67;0.27;;;8.30;99.90;;;;;;6282265;22;20204;-96
2021/01/02 19:48:04;;;;;;;0.63;0.30;;;8.30;99.90;;;;;;6280967;22;20208;-96
2021/01/02 19:50:36;;;;;;;0.50;0.43;;;8.30;99.90;;;;;;6278524;22;20216;-96
2021/01/02 19:53:07;;;;;;;0.10;0.10;;;8.30;99.90;;;;;;6279520;22;20181;-94
2021/01/02 19:55:38;;;;;;;0.20;0.20;;;8.30;99.90;;;;;;6279371;22;20231;-95
2021/01/02 19:58:12;;;;;;;1.60;0.40;;;8.30;99.90;;;;;;6255445;22;20200;-93
2021/01/02 20:01:03;;;;;;;0.40;0.23;;;8.30;99.90;;;;;;6259696;22;20679;-95
2021/01/02 20:03:34;;;;;;;0.80;0.47;;;8.40;99.90;;;;;;6281193;22;20205;-93
2021/01/02 20:06:06;;;;;;;0.87;0.40;;;8.40;99.90;;;;;;6289825;22;20202;-96
2021/01/02 20:08:38;;;;;;;0.20;0.20;;;8.40;99.90;;;;;;6290330;22;20242;-96
2021/01/02 20:11:12;;;;;;;0.40;0.20;;;8.40;99.90;;;;;;6287605;22;20188;-96
2021/01/02 20:13:44;;;;;;;0.73;0.30;;;8.60;99.90;;;;;;6289019;22;20225;-95
2021/01/02 20:16:23;;;;;;;0.47;0.30;;;8.50;99.90;;;;;;6290858;22;20202;-96
2021/01/02 20:18:55;;;;;;;0.47;0.20;;;8.50;99.90;;;;;;6267525;22;20202;-96
2021/01/02 20:21:39;;;;;;;0.20;0.20;;;8.50;99.90;;;;;;6294630;22;20181;-96
2021/01/02 20:24:17;;;;;;;0.67;0.30;;;8.50;99.90;;;;;;6296448;22;20214;-96
2021/01/02 20:26:49;;;;;;;0.33;0.23;;;8.40;99.90;;;;;;6295885;22;20217;-95
2021/01/02 20:37:28;;;;;;;0.40;0.30;;;8.30;99.90;;;;;;6265348;22;20254;-94
2021/01/02 20:39:58;;;;;;;0.23;0.23;;;8.30;99.90;;;;;;6302832;22;20285;-96
2021/01/02 20:42:30;;;;;;;0.20;0.20;;;8.30;99.90;;;;;;6284029;22;20196;-96
2021/01/02 20:45:12;;;;;;;0.20;0.20;;;8.30;99.90;;;;;;6302347;22;20156;-96
2021/01/02 20:47:45;;;;;;;2.10;0.23;;;8.30;99.90;;;;;;6301744;22;20230;-96
2021/01/02 20:50:17;;;;;;;1.70;0.20;;;8.30;99.90;;;;;;6244470;22;20197;-96
2021/01/02 20:52:49;;;;;;;0.53;0.37;;;8.30;99.90;;;;;;6297697;22;20171;-95
2021/01/02 20:55:21;;;;;;;0.20;0.20;;;8.30;99.90;;;;;;6295309;22;20179;-96
2021/01/02 20:57:52;;;;;;;0.20;0.20;;;8.20;99.90;;;;;;6294887;22;20183;-96
2021/01/02 21:00:24;;;;;;;0.30;0.30;;;8.30;99.90;;;;;;6294223;22;20178;-95
2021/01/02 21:02:56;;;;;;;0.30;0.20;;;8.30;99.90;;;;;;6294372;22;20205;-96
2021/01/02 21:05:30;;;;;;;0.20;0.20;;;8.30;99.90;;;;;;6295499;22;20178;-96
2021/01/02 21:08:06;;;;;;;0.40;0.23;;;8.30;99.90;;;;;;6269952;22;20197;-96
2021/01/02 21:10:37;;;;;;;0.57;0.30;;;8.30;99.90;;;;;;6268693;22;20183;-96
2021/01/02 21:13:08;;;;;;;0.20;0.20;;;8.30;99.90;;;;;;6293470;22;20191;-96
2021/01/02 21:15:39;;;;;;;0.20;0.20;;;8.30;99.90;;;;;;6294681;22;20199;-96
2021/01/02 21:18:14;;;;;;;0.20;0.20;;;8.40;99.90;;;;;;6297398;22;20234;-96
2021/01/02 21:23:22;;;;;;;0.47;0.20;;;8.40;99.90;;;;;;6299012;22;20385;-93
2021/01/02 21:25:55;;;;;;;0.50;0.27;;;8.40;99.90;;;;;;6300580;22;20213;-96
2021/01/02 21:28:39;;;;;;;0.73;0.20;;;8.40;99.90;;;;;;6299500;22;20176;-96
2021/01/02 21:31:23;;;;;;;0.20;0.20;;;8.30;99.90;;;;;;6264514;22;20228;-89
2021/01/02 23:32:58;;;;;;;2.20;0.27;;;8.40;99.90;;;;;;6298503;22;20215;-96
2021/01/02 23:35:41;;;;;;;0.10;0.10;;;8.40;99.90;;;;;;6301607;22;20197;-96
2021/01/02 23:38:14;;;;;;;0.10;0.10;;;8.40;99.90;;;;;;6302434;22;20175;-96
2021/01/02 23:40:47;;;;;;;0.20;0.20;;;8.30;99.90;;;;;;6299898;22;20164;-96
2021/01/02 23:57:04;;;;;;;0.57;0.30;;;8.20;99.90;;;;;;6300613;22;20309;-95
